Time;durP1;ratioP1;P1;durP2;ratioP2;P2;SDS_P1;SDS_P2;PMS_P1;PMS_P2;Temp;Humidity;BMP_temperature;BMP_pressure;BME280_temperature;BME280_humidity;BME280_pressure;Samples;Min_cycle;Max_cycle;Signal;HPM_P1;HPM_P2
2021/01/04 00:01:51;;;;;;;9.43;5.90;;;4.50;85.80;;;;;;5095434;28;20096;-73
2021/01/04 00:04:48;;;;;;;8.63;5.68;;;4.50;85.90;;;;;;5096689;28;20035;-73
2021/01/04 00:07:41;;;;;;;10.30;6.07;;;4.50;85.90;;;;;;5096629;28;20043;-73
2021/01/04 00:10:31;;;;;;;8.00;5.63;;;4.60;86.00;;;;;;5096498;28;20115;-73
2021/01/04 00:13:24;;;;;;;8.43;5.43;;;4.60;86.00;;;;;;5095398;28;20035;-74
2021/01/04 00:16:02;;;;;;;8.48;5.70;;;4.60;86.00;;;;;;5096757;28;20463;-74
2021/01/04 00:18:41;;;;;;;9.02;5.95;;;4.60;85.90;;;;;;5096826;28;20039;-73
2021/01/04 00:21:43;;;;;;;10.52;6.78;;;4.70;85.90;;;;;;5095222;28;20593;-73
2021/01/04 00:24:34;;;;;;;9.93;6.53;;;4.60;85.90;;;;;;5061584;28;20126;-73
2021/01/04 00:27:05;;;;;;;10.27;6.43;;;4.60;85.90;;;;;;5095058;28;20024;-74
2021/01/04 00:29:31;;;;;;;8.38;5.78;;;4.60;85.90;;;;;;5095025;28;20181;-73
2021/01/04 00:32:09;;;;;;;9.05;5.95;;;4.60;85.90;;;;;;5095077;28;20054;-74
2021/01/04 00:34:42;;;;;;;9.93;5.97;;;4.60;86.00;;;;;;5096287;28;20039;-73
2021/01/04 00:37:33;;;;;;;9.13;6.28;;;4.70;86.00;;;;;;5095043;28;20024;-74
2021/01/04 00:40:14;;;;;;;8.75;6.25;;;4.70;86.00;;;;;;5096519;28;20039;-74
2021/01/04 00:42:47;;;;;;;8.32;5.78;;;4.70;85.90;;;;;;5094761;28;20038;-73
2021/01/04 00:45:19;;;;;;;9.30;6.20;;;4.60;85.90;;;;;;5094782;28;20387;-73
2021/01/04 00:48:08;;;;;;;9.60;6.07;;;4.60;85.90;;;;;;5095960;28;20103;-74
2021/01/04 00:50:55;;;;;;;10.07;6.05;;;4.60;86.00;;;;;;5095886;28;20485;-74
2021/01/04 00:53:45;;;;;;;7.55;4.93;;;4.60;85.90;;;;;;5094536;28;20060;-74
2021/01/04 00:56:38;;;;;;;7.75;5.70;;;4.60;85.90;;;;;;5096287;28;20026;-74
2021/01/04 00:59:34;;;;;;;8.45;5.82;;;4.70;85.90;;;;;;5094553;28;20115;-74
2021/01/04 01:02:18;;;;;;;8.88;5.70;;;4.70;85.90;;;;;;5095693;28;20487;-73
2021/01/04 01:04:56;;;;;;;7.63;5.20;;;4.80;85.80;;;;;;5095695;28;20031;-74
2021/01/04 01:08:02;;;;;;;8.18;5.53;;;4.80;85.80;;;;;;5094407;28;20031;-73
2021/01/04 01:10:31;;;;;;;9.20;5.93;;;4.80;85.80;;;;;;5093745;28;20084;-73
2021/01/04 01:13:09;;;;;;;7.93;5.65;;;4.70;85.70;;;;;;5096307;28;20020;-73
2021/01/04 01:15:48;;;;;;;9.40;6.10;;;4.70;85.80;;;;;;5094437;28;20019;-74
2021/01/04 01:18:35;;;;;;;7.80;5.50;;;4.70;85.90;;;;;;5094357;28;20016;-74
2021/01/04 01:21:06;;;;;;;8.38;5.43;;;4.70;85.90;;;;;;5094217;28;20028;-74
2021/01/04 01:23:34;;;;;;;9.60;6.10;;;4.60;85.80;;;;;;5094096;28;20367;-74
2021/01/04 01:26:17;;;;;;;7.82;5.60;;;4.60;85.90;;;;;;5094146;28;20417;-73
2021/01/04 01:29:19;;;;;;;6.80;5.03;;;4.70;85.90;;;;;;5094051;28;20024;-73
2021/01/04 01:32:14;;;;;;;7.70;5.20;;;4.70;85.90;;;;;;5095099;28;20027;-73
2021/01/04 01:34:50;;;;;;;6.93;5.32;;;4.70;85.90;;;;;;5093697;28;20020;-73
2021/01/04 01:37:53;;;;;;;7.63;4.85;;;4.70;86.00;;;;;;5093854;28;20020;-74
2021/01/04 01:40:51;;;;;;;9.68;5.57;;;4.70;85.90;;;;;;5093660;28;20193;-75
2021/01/04 01:43:40;;;;;;;6.70;5.05;;;4.70;86.00;;;;;;5095091;28;20344;-73
2021/01/04 01:46:18;;;;;;;7.28;5.25;;;4.70;85.90;;;;;;5094978;28;20051;-74
2021/01/04 01:48:57;;;;;;;5.97;4.13;;;4.60;85.90;;;;;;5095087;28;20024;-74
2021/01/04 01:51:26;;;;;;;6.97;4.85;;;4.70;86.10;;;;;;5093724;28;20464;-73
2021/01/04 01:54:29;;;;;;;6.85;4.63;;;4.70;86.00;;;;;;5095197;28;20028;-74
2021/01/04 01:57:08;;;;;;;6.85;4.30;;;4.70;86.10;;;;;;5094766;28;20027;-73
2021/01/04 01:59:51;;;;;;;6.53;4.70;;;4.70;86.20;;;;;;5094791;28;20047;-73
2021/01/04 02:02:28;;;;;;;5.45;4.28;;;4.70;86.10;;;;;;5093451;28;20039;-73
2021/01/04 02:05:26;;;;;;;6.50;4.30;;;4.70;86.00;;;;;;5093374;28;20028;-74
2021/01/04 02:07:57;;;;;;;7.35;5.07;;;4.70;86.00;;;;;;5081544;28;20028;-73
2021/01/04 02:10:31;;;;;;;5.75;4.30;;;4.70;86.60;;;;;;5093102;28;20127;-74
2021/01/04 02:13:15;;;;;;;5.88;4.60;;;4.70;86.00;;;;;;5093215;28;20020;-74
2021/01/04 02:16:12;;;;;;;7.95;4.75;;;4.70;86.00;;;;;;5093046;28;20042;-74
2021/01/04 02:18:48;;;;;;;5.57;4.38;;;4.70;86.60;;;;;;5093162;28;20160;-74
2021/01/04 02:21:48;;;;;;;5.90;4.35;;;4.60;86.00;;;;;;5093543;28;20115;-74
2021/01/04 02:24:25;;;;;;;5.93;4.43;;;4.70;86.10;;;;;;5092912;28;20016;-74
2021/01/04 02:27:14;;;;;;;5.70;4.25;;;4.60;86.00;;;;;;5094286;28;20043;-74
2021/01/04 02:29:40;;;;;;;6.00;4.80;;;4.60;86.10;;;;;;5092823;28;20020;-73
2021/01/04 02:32:07;;;;;;;6.07;4.15;;;4.60;86.20;;;;;;5092764;28;20065;-74
2021/01/04 02:34:49;;;;;;;5.28;4.00;;;4.60;86.20;;;;;;5089786;28;20085;-75
2021/01/04 02:37:17;;;;;;;5.30;4.15;;;4.50;86.30;;;;;;5092908;28;20027;-73
2021/01/04 02:40:02;;;;;;;5.55;4.20;;;4.50;86.30;;;;;;5092761;28;20024;-74
2021/01/04 02:42:38;;;;;;;4.70;3.70;;;4.50;86.40;;;;;;5093893;28;20063;-74
2021/01/04 02:45:10;;;;;;;4.72;3.72;;;4.50;86.40;;;;;;5092503;28;20498;-73
2021/01/04 02:47:42;;;;;;;4.80;3.65;;;4.50;86.50;;;;;;5092557;28;20046;-74
2021/01/04 02:50:39;;;;;;;4.20;3.80;;;4.50;86.40;;;;;;5092551;28;20102;-74
2021/01/04 02:53:49;;;;;;;4.35;3.58;;;4.50;86.50;;;;;;5092364;28;20119;-73
2021/01/04 02:56:18;;;;;;;5.07;3.50;;;4.60;86.50;;;;;;5051507;28;20492;-73
2021/01/04 02:59:04;;;;;;;5.38;3.60;;;4.50;86.30;;;;;;5034596;28;20078;-73
2021/01/04 03:01:49;;;;;;;4.80;3.38;;;4.50;86.30;;;;;;5034812;28;20036;-74
2021/01/04 03:04:17;;;;;;;4.93;3.78;;;4.50;86.40;;;;;;5034650;28;20028;-74
2021/01/04 03:06:54;;;;;;;4.85;3.65;;;4.50;86.60;;;;;;5051206;28;20025;-73
2021/01/04 03:09:20;;;;;;;4.50;3.70;;;4.50;86.60;;;;;;5051118;28;20061;-74
2021/01/04 03:11:46;;;;;;;5.20;4.00;;;4.50;86.60;;;;;;5034530;28;20025;-74
2021/01/04 03:14:27;;;;;;;4.75;3.75;;;4.50;86.60;;;;;;5051186;28;20063;-74
2021/01/04 03:17:07;;;;;;;4.30;3.42;;;4.40;86.50;;;;;;5034311;28;20064;-73
2021/01/04 03:19:38;;;;;;;5.00;3.80;;;4.40;86.60;;;;;;5051010;28;20103;-73
2021/01/04 03:22:06;;;;;;;4.78;4.00;;;4.40;86.60;;;;;;5034287;28;20039;-74
2021/01/04 03:24:32;;;;;;;4.57;4.05;;;4.50;86.70;;;;;;5034310;28;20342;-74
2021/01/04 03:27:08;;;;;;;4.20;3.80;;;4.40;86.60;;;;;;5051066;28;20035;-73
2021/01/04 03:29:34;;;;;;;4.68;3.97;;;4.40;86.70;;;;;;5060735;28;20042;-74
2021/01/04 03:32:00;;;;;;;6.50;4.20;;;4.40;86.70;;;;;;5092902;28;20028;-74
2021/01/04 03:34:25;;;;;;;5.20;3.90;;;4.40;86.60;;;;;;5093705;28;20451;-73
2021/01/04 03:36:51;;;;;;;3.78;3.38;;;4.40;86.60;;;;;;5091796;28;20016;-74
2021/01/04 03:39:17;;;;;;;5.05;3.78;;;4.40;86.60;;;;;;5093125;28;20508;-74
2021/01/04 03:41:42;;;;;;;4.68;3.80;;;4.40;86.60;;;;;;5091682;28;20016;-73
2021/01/04 03:44:09;;;;;;;4.68;3.88;;;4.40;86.60;;;;;;5092784;28;20024;-74
2021/01/04 03:46:35;;;;;;;3.78;3.20;;;4.40;86.60;;;;;;5092902;28;20023;-74
2021/01/04 03:49:01;;;;;;;4.65;3.55;;;4.40;86.60;;;;;;5091784;28;20522;-73
2021/01/04 03:51:27;;;;;;;4.35;3.60;;;4.40;86.70;;;;;;5092981;28;20099;-73
2021/01/04 03:53:52;;;;;;;4.97;3.22;;;4.40;86.60;;;;;;5091941;28;20780;-73
2021/01/04 03:56:20;;;;;;;4.50;3.30;;;4.40;86.70;;;;;;5093369;28;20069;-75
2021/01/04 03:58:46;;;;;;;3.97;3.10;;;4.40;86.70;;;;;;5091671;28;20119;-73
2021/01/04 04:01:11;;;;;;;3.53;3.15;;;4.40;86.70;;;;;;5091603;28;20126;-73
2021/01/04 04:03:37;;;;;;;3.55;3.15;;;4.40;86.70;;;;;;5091662;28;20468;-73
2021/01/04 04:06:03;;;;;;;3.97;3.60;;;4.40;86.70;;;;;;5092849;28;20129;-73
2021/01/04 04:08:29;;;;;;;3.60;3.25;;;4.40;86.60;;;;;;5092718;28;20024;-73
2021/01/04 04:10:55;;;;;;;4.45;3.30;;;4.40;86.60;;;;;;5091506;28;20502;-73
2021/01/04 04:13:21;;;;;;;4.03;3.15;;;4.40;86.70;;;;;;5091524;28;20030;-73
2021/01/04 04:15:47;;;;;;;4.45;3.28;;;4.30;86.70;;;;;;5092838;28;20024;-73
2021/01/04 04:18:13;;;;;;;3.63;2.92;;;4.30;86.80;;;;;;5091483;28;20089;-73
2021/01/04 04:20:38;;;;;;;4.00;3.50;;;4.30;86.80;;;;;;5092067;28;20025;-73
2021/01/04 04:23:04;;;;;;;3.72;3.22;;;4.30;86.90;;;;;;5091504;28;20028;-73
2021/01/04 04:25:29;;;;;;;4.18;3.25;;;4.30;86.90;;;;;;5091504;28;20028;-73
2021/01/04 04:27:56;;;;;;;3.40;2.85;;;4.30;86.90;;;;;;5091370;28;20055;-73
2021/01/04 04:30:24;;;;;;;4.28;3.30;;;4.40;87.00;;;;;;5091431;28;20020;-74
2021/01/04 04:32:52;;;;;;;3.78;3.03;;;4.40;87.50;;;;;;5091336;28;20483;-73
2021/01/04 04:35:17;;;;;;;3.85;3.10;;;4.40;86.90;;;;;;5091369;28;20024;-73
2021/01/04 04:37:44;;;;;;;3.40;3.10;;;4.40;86.90;;;;;;5092444;28;20467;-73
2021/01/04 04:40:33;;;;;;;4.47;3.00;;;4.40;86.90;;;;;;5091216;28;20034;-73
2021/01/04 04:43:12;;;;;;;4.50;3.08;;;4.50;86.90;;;;;;5092411;28;20032;-74
2021/01/04 04:45:39;;;;;;;3.03;2.72;;;4.50;86.80;;;;;;5095655;28;20059;-74
2021/01/04 04:48:23;;;;;;;3.83;2.95;;;4.50;86.80;;;;;;5095229;28;20028;-73
2021/01/04 04:51:34;;;;;;;3.20;2.90;;;4.50;86.70;;;;;;5094820;28;20036;-73
2021/01/04 04:54:36;;;;;;;4.15;3.28;;;4.50;86.70;;;;;;5093800;28;20391;-73
2021/01/04 04:57:34;;;;;;;4.00;3.45;;;4.50;86.70;;;;;;5094908;28;20027;-74
2021/01/04 05:00:23;;;;;;;3.30;2.85;;;4.40;86.70;;;;;;5094710;28;20020;-74
2021/01/04 05:03:00;;;;;;;3.72;3.17;;;4.40;86.80;;;;;;5096241;28;20502;-73
2021/01/04 05:05:31;;;;;;;4.47;3.65;;;4.40;86.80;;;;;;5094681;28;20084;-73
2021/01/04 05:08:20;;;;;;;4.78;4.13;;;4.50;86.90;;;;;;5095932;28;20020;-74
2021/01/04 05:10:51;;;;;;;4.53;3.70;;;4.50;86.90;;;;;;5095699;28;20044;-74
2021/01/04 05:13:42;;;;;;;4.85;3.90;;;4.50;86.90;;;;;;5094468;28;20436;-73
2021/01/04 05:16:14;;;;;;;4.72;3.70;;;4.50;86.90;;;;;;5093381;28;20044;-74
2021/01/04 05:18:51;;;;;;;5.20;3.78;;;4.40;86.80;;;;;;5094481;28;20119;-74
2021/01/04 05:21:25;;;;;;;3.75;3.15;;;4.40;86.80;;;;;;5094386;28;20038;-74
2021/01/04 05:24:06;;;;;;;5.28;4.45;;;4.50;86.90;;;;;;5094209;28;20036;-74
2021/01/04 05:27:04;;;;;;;4.80;3.88;;;4.50;86.80;;;;;;5094112;28;20027;-73
2021/01/04 05:29:43;;;;;;;4.85;4.20;;;4.50;86.80;;;;;;5086572;28;20480;-74
2021/01/04 05:32:22;;;;;;;5.60;3.85;;;4.50;86.80;;;;;;5094178;28;20028;-73
2021/01/04 05:34:53;;;;;;;5.28;4.00;;;4.40;86.80;;;;;;5095402;28;20030;-73
2021/01/04 05:37:42;;;;;;;4.72;3.55;;;4.40;86.90;;;;;;5094007;28;20050;-74
2021/01/04 05:40:26;;;;;;;4.45;3.50;;;4.40;87.00;;;;;;5095759;28;20028;-74
2021/01/04 05:43:04;;;;;;;4.32;3.20;;;4.40;87.00;;;;;;5093872;28;20036;-74
2021/01/04 05:45:31;;;;;;;4.30;3.38;;;4.40;87.00;;;;;;5095102;28;20028;-73
2021/01/04 05:48:24;;;;;;;5.45;3.97;;;4.40;87.00;;;;;;5093878;28;20051;-74
2021/01/04 05:51:09;;;;;;;4.25;3.78;;;4.50;87.00;;;;;;5093701;28;20111;-74
2021/01/04 05:53:34;;;;;;;5.65;4.07;;;4.50;87.00;;;;;;5094981;28;20355;-74
2021/01/04 05:56:01;;;;;;;5.28;3.95;;;4.50;87.00;;;;;;5093633;28;20024;-73
2021/01/04 05:58:32;;;;;;;4.40;3.50;;;4.50;87.00;;;;;;5094954;28;20020;-74
2021/01/04 06:01:07;;;;;;;5.18;3.65;;;4.50;87.00;;;;;;5094874;28;20090;-74
2021/01/04 06:03:33;;;;;;;5.60;3.90;;;4.50;87.00;;;;;;5094056;28;20395;-74
2021/01/04 06:06:08;;;;;;;5.65;3.83;;;4.50;87.00;;;;;;5094843;28;20031;-74
2021/01/04 06:08:33;;;;;;;4.80;3.80;;;4.50;87.00;;;;;;5094597;28;20020;-73
2021/01/04 06:11:14;;;;;;;5.45;4.03;;;4.50;87.10;;;;;;5094760;28;20024;-74
2021/01/04 06:13:43;;;;;;;4.03;3.40;;;4.40;87.10;;;;;;5093427;28;20021;-74
2021/01/04 06:16:24;;;;;;;6.28;4.03;;;4.40;87.10;;;;;;5094884;28;20024;-74
2021/01/04 06:18:55;;;;;;;6.00;3.60;;;4.40;87.20;;;;;;5093245;28;20108;-73
2021/01/04 06:21:35;;;;;;;3.92;3.50;;;4.40;87.20;;;;;;5093259;28;20115;-74
2021/01/04 06:24:02;;;;;;;5.70;3.42;;;4.40;87.20;;;;;;5094663;28;20031;-73
2021/01/04 06:26:28;;;;;;;6.65;3.70;;;4.50;87.30;;;;;;5094486;28;20030;-74
2021/01/04 06:28:59;;;;;;;4.90;3.30;;;4.50;87.20;;;;;;5093142;28;20073;-74
2021/01/04 06:31:38;;;;;;;4.78;3.30;;;4.50;87.20;;;;;;5093162;28;20062;-74
2021/01/04 06:34:17;;;;;;;6.07;3.20;;;4.50;87.20;;;;;;5094451;28;20062;-73
2021/01/04 06:36:53;;;;;;;4.15;3.08;;;4.50;87.20;;;;;;5094245;28;20027;-74
2021/01/04 06:39:24;;;;;;;4.57;3.78;;;4.50;87.20;;;;;;5094191;28;20077;-73
2021/01/04 06:41:51;;;;;;;4.80;3.60;;;4.60;87.20;;;;;;5094042;28;20020;-72
2021/01/04 06:44:23;;;;;;;5.50;4.10;;;4.50;87.00;;;;;;5094016;28;20039;-74
2021/01/04 06:47:00;;;;;;;5.90;3.75;;;4.60;87.10;;;;;;5092611;28;20074;-74
2021/01/04 06:49:31;;;;;;;4.57;3.65;;;4.60;87.20;;;;;;5093134;28;20111;-72
2021/01/04 06:52:09;;;;;;;5.90;4.03;;;4.60;87.20;;;;;;5092479;28;20111;-72
2021/01/04 06:54:53;;;;;;;8.10;5.45;;;4.70;87.30;;;;;;5092660;28;20081;-71
2021/01/04 06:57:27;;;;;;;6.80;4.88;;;4.70;87.20;;;;;;5093849;28;20075;-72
2021/01/04 07:00:30;;;;;;;6.93;5.38;;;4.60;87.00;;;;;;5093646;28;20024;-73
2021/01/04 07:03:04;;;;;;;9.27;6.13;;;4.60;87.10;;;;;;5093631;28;20059;-72
2021/01/04 07:05:57;;;;;;;8.05;5.70;;;4.50;87.10;;;;;;5093568;28;20062;-73
2021/01/04 07:08:41;;;;;;;9.73;6.60;;;4.50;87.20;;;;;;5093285;28;20077;-72
2021/01/04 07:11:39;;;;;;;7.07;5.32;;;4.50;87.60;;;;;;5092236;28;20119;-76
2021/01/04 07:14:35;;;;;;;8.25;6.28;;;4.50;87.40;;;;;;5093563;28;20016;-72
2021/01/04 07:17:28;;;;;;;8.38;5.47;;;4.40;87.30;;;;;;5072127;28;20067;-72
2021/01/04 07:20:41;;;;;;;6.88;5.32;;;4.40;87.40;;;;;;5091836;28;20064;-74
2021/01/04 07:23:44;;;;;;;5.27;4.00;;;4.50;87.50;;;;;;5034096;28;20037;-75
2021/01/04 07:26:22;;;;;;;5.82;4.25;;;4.50;89.60;;;;;;5033951;28;20095;-72
2021/01/04 07:29:06;;;;;;;5.10;3.78;;;4.50;89.60;;;;;;5050772;28;20083;-72
2021/01/04 07:32:17;;;;;;;3.95;2.80;;;4.60;90.00;;;;;;5050836;28;20021;-73
2021/01/04 07:34:55;;;;;;;7.80;5.88;;;4.60;91.40;;;;;;4955543;28;20043;-74
2021/01/04 07:37:32;;;;;;;7.63;5.30;;;4.60;91.40;;;;;;4971799;28;20062;-75
2021/01/04 07:40:00;;;;;;;9.32;6.03;;;4.60;91.20;;;;;;4972352;28;20503;-74
2021/01/04 07:42:59;;;;;;;10.90;5.72;;;4.60;91.00;;;;;;4971851;28;20514;-74
2021/01/04 07:45:25;;;;;;;6.88;5.05;;;4.60;90.70;;;;;;4972324;28;20035;-73
2021/01/04 07:48:44;;;;;;;9.35;5.80;;;4.60;90.50;;;;;;4971784;28;20023;-73
2021/01/04 07:51:28;;;;;;;10.10;5.88;;;4.60;90.30;;;;;;4914117;29;20123;-72
2021/01/04 07:54:11;;;;;;;7.60;6.05;;;4.60;89.90;;;;;;4898352;29;20042;-72
2021/01/04 07:57:14;;;;;;;7.80;5.03;;;4.50;90.00;;;;;;4898377;29;20040;-73
2021/01/04 07:59:59;;;;;;;7.63;5.30;;;4.50;89.80;;;;;;4929524;28;20497;-72
2021/01/04 08:02:55;;;;;;;6.65;4.88;;;4.50;89.70;;;;;;4971644;28;20490;-72
2021/01/04 08:05:33;;;;;;;6.68;4.85;;;4.50;89.50;;;;;;4971443;28;20058;-71
2021/01/04 08:08:28;;;;;;;5.93;4.55;;;4.50;89.40;;;;;;4987260;28;20127;-71
2021/01/04 08:11:18;;;;;;;7.32;4.90;;;4.60;89.20;;;;;;5030297;28;20096;-77
2021/01/04 08:14:16;;;;;;;7.53;5.43;;;4.60;89.20;;;;;;5013873;28;20037;-71
2021/01/04 08:16:51;;;;;;;10.10;4.75;;;4.50;89.10;;;;;;5030113;28;20590;-71
2021/01/04 08:19:18;;;;;;;6.72;4.78;;;4.60;89.30;;;;;;5031284;28;20034;-71
2021/01/04 08:22:36;;;;;;;8.55;5.57;;;4.60;89.40;;;;;;5059819;28;20485;-70
2021/01/04 08:25:09;;;;;;;6.32;4.63;;;4.60;89.20;;;;;;5037210;28;20036;-72
2021/01/04 08:28:05;;;;;;;6.63;4.70;;;4.60;89.00;;;;;;5085730;28;20036;-70
2021/01/04 08:30:40;;;;;;;6.85;4.75;;;4.70;89.10;;;;;;5096237;28;20406;-70
2021/01/04 08:33:41;;;;;;;5.50;4.00;;;4.60;89.00;;;;;;5095002;28;20024;-70
2021/01/04 08:36:27;;;;;;;5.57;4.07;;;4.70;89.00;;;;;;5094064;28;20067;-70
2021/01/04 08:39:28;;;;;;;6.13;4.85;;;4.70;89.10;;;;;;5094881;28;20024;-72
2021/01/04 08:42:03;;;;;;;5.43;4.15;;;4.70;88.90;;;;;;5096105;28;20020;-70
2021/01/04 08:44:29;;;;;;;5.68;3.97;;;4.70;88.80;;;;;;5095858;28;20028;-70
2021/01/04 08:47:05;;;;;;;6.45;4.90;;;4.70;89.00;;;;;;5094607;28;20016;-72
2021/01/04 08:49:41;;;;;;;6.38;4.20;;;4.70;89.10;;;;;;5094761;28;20016;-71
2021/01/04 08:52:19;;;;;;;7.28;4.88;;;4.70;89.10;;;;;;5094668;28;20020;-72
2021/01/04 08:54:56;;;;;;;7.40;5.10;;;4.70;89.00;;;;;;5094706;28;20035;-72
2021/01/04 08:57:36;;;;;;;6.70;4.40;;;4.70;88.70;;;;;;5095751;28;20479;-72
2021/01/04 09:00:14;;;;;;;6.55;4.38;;;4.70;88.70;;;;;;5094534;28;20020;-72
2021/01/04 09:02:42;;;;;;;6.18;4.78;;;4.70;88.80;;;;;;5094758;28;20476;-73
2021/01/04 09:05:13;;;;;;;7.13;4.93;;;4.70;88.90;;;;;;5094288;28;20183;-72
2021/01/04 09:07:48;;;;;;;8.95;5.60;;;4.70;88.90;;;;;;5094417;28;20020;-72
2021/01/04 09:10:37;;;;;;;11.20;5.20;;;4.70;88.70;;;;;;5094236;28;20047;-71
2021/01/04 09:13:09;;;;;;;6.78;4.63;;;4.80;88.70;;;;;;5095683;28;20012;-72
2021/01/04 09:15:37;;;;;;;8.02;5.18;;;4.70;88.60;;;;;;5095476;28;20424;-72
2021/01/04 09:18:03;;;;;;;8.15;5.53;;;4.80;88.60;;;;;;5094312;28;20051;-72
2021/01/04 09:20:37;;;;;;;7.47;4.90;;;4.80;88.60;;;;;;5094305;28;20068;-71
2021/01/04 09:23:18;;;;;;;8.38;5.53;;;4.80;88.50;;;;;;5094315;28;20482;-72
2021/01/04 09:25:52;;;;;;;7.63;5.28;;;4.80;88.50;;;;;;5093874;28;20202;-72
2021/01/04 09:28:19;;;;;;;;;;;4.80;88.50;;;;;;5094478;28;20024;-72
2021/01/04 09:30:46;;;;;;;7.45;5.20;;;4.80;88.60;;;;;;5093746;28;20370;-72
2021/01/04 09:33:17;;;;;;;9.95;5.55;;;4.80;88.50;;;;;;5093898;28;20073;-71
2021/01/04 09:35:43;;;;;;;8.85;5.22;;;4.80;88.40;;;;;;5093848;28;20112;-71
2021/01/04 09:38:19;;;;;;;7.72;5.38;;;4.80;88.40;;;;;;5095346;28;20031;-71
2021/01/04 09:40:56;;;;;;;8.13;4.97;;;4.80;88.50;;;;;;5095705;28;20020;-71
2021/01/04 09:43:27;;;;;;;11.57;5.43;;;4.90;88.60;;;;;;5095668;28;20024;-71
2021/01/04 09:46:07;;;;;;;6.45;4.82;;;4.90;88.50;;;;;;5093871;28;20020;-76
2021/01/04 09:48:40;;;;;;;7.13;4.32;;;4.90;88.50;;;;;;5093902;28;20471;-71
2021/01/04 09:51:09;;;;;;;6.80;4.72;;;5.00;88.40;;;;;;5093743;28;20020;-71
2021/01/04 09:53:40;;;;;;;8.13;4.80;;;5.00;88.40;;;;;;5094870;28;20403;-71
2021/01/04 09:56:11;;;;;;;8.85;4.57;;;5.00;88.30;;;;;;5093811;28;20032;-71
2021/01/04 09:58:38;;;;;;;7.57;4.82;;;5.00;88.30;;;;;;5095577;28;20024;-72
2021/01/04 10:01:26;;;;;;;5.50;4.22;;;5.00;88.30;;;;;;5094806;28;20032;-72
2021/01/04 10:03:55;;;;;;;6.38;4.82;;;5.10;88.30;;;;;;5093492;28;20024;-71
2021/01/04 10:06:26;;;;;;;8.02;5.18;;;5.10;88.20;;;;;;5094698;28;20028;-71
2021/01/04 10:08:52;;;;;;;7.50;4.82;;;5.20;88.10;;;;;;5093148;28;20104;-71
2021/01/04 10:11:22;;;;;;;6.95;4.72;;;5.20;88.00;;;;;;5094739;28;20020;-72
2021/01/04 10:13:50;;;;;;;7.13;5.20;;;5.10;87.90;;;;;;5094454;28;20048;-72
2021/01/04 10:16:21;;;;;;;8.50;5.70;;;5.20;87.80;;;;;;5094689;28;20399;-73
2021/01/04 10:18:51;;;;;;;10.57;5.20;;;5.10;87.60;;;;;;5092936;28;20028;-72
2021/01/04 10:21:23;;;;;;;7.65;5.68;;;5.10;87.70;;;;;;5094418;28;20048;-70
2021/01/04 10:23:58;;;;;;;18.60;5.47;;;5.10;87.90;;;;;;5093259;28;20016;-71
2021/01/04 10:26:24;;;;;;;7.93;4.78;;;5.10;87.90;;;;;;5092842;28;20360;-70
2021/01/04 10:28:50;;;;;;;8.63;4.72;;;5.10;87.80;;;;;;5092976;28;20028;-71
2021/01/04 10:31:21;;;;;;;8.98;5.20;;;5.10;87.90;;;;;;5093037;28;20099;-70
2021/01/04 10:33:47;;;;;;;7.50;5.03;;;5.10;87.90;;;;;;5092803;28;20073;-70
2021/01/04 10:36:13;;;;;;;8.63;5.18;;;5.10;87.90;;;;;;5094141;28;20028;-72
2021/01/04 10:38:43;;;;;;;7.65;4.80;;;5.10;87.70;;;;;;5092727;28;20054;-71
2021/01/04 10:41:12;;;;;;;7.55;4.90;;;5.10;87.70;;;;;;5092172;28;20080;-71
2021/01/04 10:43:38;;;;;;;7.18;5.10;;;5.10;88.40;;;;;;5092203;28;20110;-72
2021/01/04 10:46:22;;;;;;;7.47;4.75;;;5.00;87.70;;;;;;5093969;28;20563;-71
2021/01/04 10:49:02;;;;;;;6.10;4.45;;;5.10;87.90;;;;;;5092628;28;20035;-71
2021/01/04 10:51:28;;;;;;;5.72;4.45;;;5.00;87.90;;;;;;5093750;28;20095;-72
2021/01/04 10:53:55;;;;;;;6.55;4.40;;;5.00;88.00;;;;;;5093657;28;20422;-71
2021/01/04 10:56:24;;;;;;;8.93;5.07;;;5.00;88.00;;;;;;5092345;28;20027;-72
2021/01/04 10:59:22;;;;;;;7.53;4.43;;;5.00;88.10;;;;;;5092240;28;20114;-73
2021/01/04 11:01:50;;;;;;;8.63;5.30;;;5.00;88.20;;;;;;5088106;28;20036;-74
2021/01/04 11:04:19;;;;;;;6.97;4.28;;;5.10;88.00;;;;;;5092251;28;20024;-73
2021/01/04 11:06:58;;;;;;;5.90;4.47;;;5.00;87.90;;;;;;5092082;28;20016;-73
2021/01/04 11:09:31;;;;;;;6.80;4.38;;;5.10;88.00;;;;;;5093192;28;20071;-73
2021/01/04 11:12:16;;;;;;;4.35;3.78;;;5.10;87.90;;;;;;5092350;28;20020;-73
2021/01/04 11:14:52;;;;;;;5.38;4.00;;;5.10;87.80;;;;;;5091830;28;20078;-73
2021/01/04 11:17:20;;;;;;;4.20;3.60;;;5.00;87.70;;;;;;5092257;28;20054;-73
2021/01/04 11:19:47;;;;;;;5.03;4.13;;;5.00;87.80;;;;;;5092672;28;20424;-74
2021/01/04 11:22:13;;;;;;;6.22;4.13;;;5.00;87.80;;;;;;5092083;28;20024;-73
2021/01/04 11:24:39;;;;;;;5.82;4.07;;;4.90;87.80;;;;;;5091788;28;20035;-72
2021/01/04 11:27:05;;;;;;;5.78;3.80;;;4.90;87.90;;;;;;5093025;28;20493;-72
2021/01/04 11:29:31;;;;;;;5.18;4.25;;;4.90;87.90;;;;;;5091708;28;20062;-73
2021/01/04 11:32:00;;;;;;;5.30;3.55;;;4.90;88.00;;;;;;5091730;28;20419;-72
2021/01/04 11:34:25;;;;;;;4.57;3.63;;;4.90;88.60;;;;;;5091752;28;20123;-72
2021/01/04 11:36:51;;;;;;;5.05;3.47;;;4.90;87.90;;;;;;5091786;28;20059;-72
2021/01/04 11:39:21;;;;;;;6.25;4.00;;;4.90;88.30;;;;;;5092939;28;20103;-72
2021/01/04 11:41:47;;;;;;;5.65;3.60;;;4.90;87.80;;;;;;5093236;28;20019;-71
2021/01/04 11:44:13;;;;;;;4.88;3.50;;;4.90;87.90;;;;;;5092814;28;20376;-72
2021/01/04 11:46:38;;;;;;;4.97;2.90;;;4.90;87.90;;;;;;5091398;28;20063;-71
2021/01/04 11:49:04;;;;;;;5.85;3.70;;;5.00;87.80;;;;;;5091436;28;20114;-71
2021/01/04 11:51:30;;;;;;;3.92;3.40;;;5.00;87.60;;;;;;5091430;28;20024;-72
2021/01/04 11:53:56;;;;;;;5.63;3.47;;;5.00;87.60;;;;;;5091100;28;20024;-71
2021/01/04 11:56:23;;;;;;;3.92;3.30;;;4.90;87.30;;;;;;5092799;28;20020;-73
2021/01/04 11:58:49;;;;;;;5.40;3.50;;;4.90;87.30;;;;;;5091400;28;20358;-73
2021/01/04 12:01:17;;;;;;;5.35;3.70;;;4.90;87.50;;;;;;5091220;28;20031;-72
2021/01/04 12:03:44;;;;;;;4.22;3.40;;;4.90;87.50;;;;;;5091300;28;20016;-73
2021/01/04 12:06:11;;;;;;;5.10;3.70;;;4.90;87.30;;;;;;5091072;28;20021;-73
2021/01/04 12:08:38;;;;;;;4.70;3.35;;;4.90;87.50;;;;;;5091044;28;20020;-73
2021/01/04 12:11:04;;;;;;;6.72;3.53;;;4.90;87.40;;;;;;5090866;28;20445;-72
2021/01/04 12:13:29;;;;;;;5.03;3.40;;;4.90;87.30;;;;;;5091007;28;20027;-71
2021/01/04 12:15:55;;;;;;;4.47;3.20;;;4.90;87.30;;;;;;5091043;28;20024;-72
2021/01/04 12:18:21;;;;;;;4.82;3.60;;;4.90;87.50;;;;;;5092470;28;20058;-72
2021/01/04 12:20:47;;;;;;;3.55;3.22;;;4.90;87.40;;;;;;5091159;28;20127;-72
2021/01/04 12:23:14;;;;;;;4.95;3.55;;;4.90;87.30;;;;;;5092447;28;20028;-72
2021/01/04 12:25:39;;;;;;;6.90;3.55;;;4.90;87.10;;;;;;5091119;28;20034;-72
2021/01/04 12:28:05;;;;;;;4.82;3.40;;;4.90;87.00;;;;;;5092551;28;20442;-72
2021/01/04 12:30:32;;;;;;;3.92;2.92;;;4.90;87.10;;;;;;5092485;28;20069;-72
2021/01/04 12:33:00;;;;;;;6.10;3.53;;;4.90;86.80;;;;;;5091290;28;20114;-72
2021/01/04 12:35:26;;;;;;;4.85;3.28;;;4.90;86.70;;;;;;5091210;28;20081;-73
2021/01/04 12:37:52;;;;;;;3.75;2.83;;;4.80;86.70;;;;;;5091198;28;20424;-72
2021/01/04 12:40:20;;;;;;;3.50;3.20;;;4.90;86.60;;;;;;5091333;28;20085;-71
2021/01/04 12:42:46;;;;;;;3.97;3.33;;;4.90;86.50;;;;;;5092456;28;20065;-72
2021/01/04 12:45:15;;;;;;;3.67;2.72;;;4.90;86.50;;;;;;5091048;28;20051;-71
2021/01/04 12:47:41;;;;;;;4.40;3.20;;;4.90;86.60;;;;;;5092875;28;20507;-71
2021/01/04 12:50:07;;;;;;;3.38;3.08;;;4.80;86.40;;;;;;5091146;28;20029;-73
2021/01/04 12:52:33;;;;;;;3.42;2.83;;;4.90;86.50;;;;;;5091023;28;20115;-72
2021/01/04 12:54:59;;;;;;;4.03;2.97;;;4.90;86.50;;;;;;5091048;28;20115;-72
2021/01/04 12:57:24;;;;;;;4.65;3.03;;;4.80;86.40;;;;;;5092377;28;20036;-73
2021/01/04 12:59:50;;;;;;;5.03;2.80;;;4.90;86.30;;;;;;5092359;28;20031;-73
2021/01/04 13:02:18;;;;;;;3.63;2.97;;;4.90;86.30;;;;;;5092458;28;20029;-71
2021/01/04 13:04:44;;;;;;;4.20;2.97;;;4.90;86.30;;;;;;5091177;28;20506;-73
2021/01/04 13:07:11;;;;;;;3.60;2.88;;;4.90;86.30;;;;;;5095818;28;20387;-73
2021/01/04 13:09:38;;;;;;;3.90;3.30;;;4.90;86.30;;;;;;5094399;28;20040;-73
2021/01/04 13:12:05;;;;;;;3.55;2.90;;;4.90;86.00;;;;;;5095814;28;20039;-72
2021/01/04 13:14:31;;;;;;;5.22;3.42;;;4.90;86.10;;;;;;5095854;28;20024;-72
2021/01/04 13:16:56;;;;;;;4.68;3.13;;;4.80;86.00;;;;;;5094368;28;20027;-72
2021/01/04 13:19:27;;;;;;;4.28;3.17;;;4.90;86.10;;;;;;5094211;28;20032;-73
2021/01/04 13:21:54;;;;;;;4.60;3.10;;;4.90;85.80;;;;;;5094231;28;20114;-73
2021/01/04 13:24:20;;;;;;;4.97;3.00;;;4.80;85.80;;;;;;5094172;28;20019;-73
2021/01/04 13:26:52;;;;;;;3.53;2.95;;;4.80;85.80;;;;;;5095776;28;20119;-73
2021/01/04 13:29:26;;;;;;;3.40;2.92;;;4.80;85.90;;;;;;5094292;28;20028;-73
2021/01/04 13:31:53;;;;;;;3.22;2.78;;;4.80;86.00;;;;;;5095377;28;20431;-73
2021/01/04 13:34:19;;;;;;;4.78;2.65;;;4.80;85.80;;;;;;5095396;28;20023;-74
2021/01/04 13:36:48;;;;;;;4.22;2.80;;;4.80;85.60;;;;;;5093948;28;20118;-74
2021/01/04 13:39:15;;;;;;;3.60;3.10;;;4.80;85.60;;;;;;5095790;28;20043;-74
2021/01/04 13:41:41;;;;;;;4.30;2.58;;;4.80;85.30;;;;;;5093794;28;20077;-74
2021/01/04 13:44:07;;;;;;;3.10;2.80;;;4.80;85.50;;;;;;5095061;28;20475;-73